sensor_id;sensor_type;location;lat;lon;timestamp;P1;durP1;ratioP1;P2;durP2;ratioP2
59653;SDS011;66556;52.008;5.432;2023-02-28T00:01:10;8.2;;;4.2;;
59653;SDS011;66556;52.008;5.432;2023-02-28T00:04:24;7.7;;;4.1;;
59653;SDS011;66556;52.008;5.432;2023-02-28T00:06:00;6.9;;;4.2;;
59653;SDS011;66556;52.008;5.432;2023-02-28T00:07:37;7.6;;;4.41;;
59653;SDS011;66556;52.008;5.432;2023-02-28T00:09:14;9.31;;;4.0;;
59653;SDS011;66556;52.008;5.432;2023-02-28T00:12:26;8.9;;;4.5;;
59653;SDS011;66556;52.008;5.432;2023-02-28T00:14:02;8.4;;;4.3;;
59653;SDS011;66556;52.008;5.432;2023-02-28T00:15:39;9.6;;;4.2;;
59653;SDS011;66556;52.008;5.432;2023-02-28T00:18:51;7.8;;;4.5;;
59653;SDS011;66556;52.008;5.432;2023-02-28T00:20:27;10.7;;;4.8;;
59653;SDS011;66556;52.008;5.432;2023-02-28T00:22:03;7.7;;;4.41;;
59653;SDS011;66556;52.008;5.432;2023-02-28T00:25:16;5.8;;;3.9;;
59653;SDS011;66556;52.008;5.432;2023-02-28T00:26:55;12.2;;;4.3;;
59653;SDS011;66556;52.008;5.432;2023-02-28T00:28:32;8.4;;;4.41;;
59653;SDS011;66556;52.008;5.432;2023-02-28T00:30:09;9.1;;;4.0;;
59653;SDS011;66556;52.008;5.432;2023-02-28T00:33:27;9.1;;;4.5;;
59653;SDS011;66556;52.008;5.432;2023-02-28T00:35:05;8.9;;;3.8;;
59653;SDS011;66556;52.008;5.432;2023-02-28T00:36:42;7.8;;;4.1;;
59653;SDS011;66556;52.008;5.432;2023-02-28T00:39:56;9.4;;;4.2;;
59653;SDS011;66556;52.008;5.432;2023-02-28T00:41:32;8.2;;;4.1;;
59653;SDS011;66556;52.008;5.432;2023-02-28T00:43:08;10.1;;;4.7;;
59653;SDS011;66556;52.008;5.432;2023-02-28T00:46:20;10.9;;;4.61;;
59653;SDS011;66556;52.008;5.432;2023-02-28T00:47:56;13.8;;;5.7;;
59653;SDS011;66556;52.008;5.432;2023-02-28T00:49:33;10.7;;;5.8;;
59653;SDS011;66556;52.008;5.432;2023-02-28T00:51:09;14.2;;;6.4;;
59653;SDS011;66556;52.008;5.432;2023-02-28T00:54:22;12.6;;;6.3;;
59653;SDS011;66556;52.008;5.432;2023-02-28T00:55:59;14.5;;;7.2;;
59653;SDS011;66556;52.008;5.432;2023-02-28T00:57:36;16.8;;;8.31;;
59653;SDS011;66556;52.008;5.432;2023-02-28T01:00:49;16.4;;;8.1;;
59653;SDS011;66556;52.008;5.432;2023-02-28T01:02:26;14.4;;;8.2;;
59653;SDS011;66556;52.008;5.432;2023-02-28T01:04:02;17.3;;;7.9;;
59653;SDS011;66556;52.008;5.432;2023-02-28T01:07:14;16.5;;;8.0;;
59653;SDS011;66556;52.008;5.432;2023-02-28T01:08:50;12.1;;;6.3;;
59653;SDS011;66556;52.008;5.432;2023-02-28T01:10:27;11.6;;;5.9;;
59653;SDS011;66556;52.008;5.432;2023-02-28T01:12:04;12.6;;;6.4;;
59653;SDS011;66556;52.008;5.432;2023-02-28T01:15:17;13.2;;;6.4;;
59653;SDS011;66556;52.008;5.432;2023-02-28T01:16:53;12.4;;;5.9;;
59653;SDS011;66556;52.008;5.432;2023-02-28T01:18:29;15.0;;;6.4;;
59653;SDS011;66556;52.008;5.432;2023-02-28T01:21:42;15.1;;;6.9;;
59653;SDS011;66556;52.008;5.432;2023-02-28T01:23:19;14.8;;;6.7;;
59653;SDS011;66556;52.008;5.432;2023-02-28T01:24:56;13.8;;;6.9;;
59653;SDS011;66556;52.008;5.432;2023-02-28T01:28:08;14.3;;;7.4;;
59653;SDS011;66556;52.008;5.432;2023-02-28T01:29:44;15.6;;;7.1;;
59653;SDS011;66556;52.008;5.432;2023-02-28T01:31:20;15.2;;;8.1;;
59653;SDS011;66556;52.008;5.432;2023-02-28T01:32:58;14.5;;;6.9;;
59653;SDS011;66556;52.008;5.432;2023-02-28T01:36:12;14.1;;;7.2;;
59653;SDS011;66556;52.008;5.432;2023-02-28T01:37:51;13.3;;;5.9;;
59653;SDS011;66556;52.008;5.432;2023-02-28T01:39:27;10.8;;;6.1;;
59653;SDS011;66556;52.008;5.432;2023-02-28T01:42:40;12.6;;;6.1;;
59653;SDS011;66556;52.008;5.432;2023-02-28T01:45:22;11.2;;;5.8;;
59653;SDS011;66556;52.008;5.432;2023-02-28T01:47:01;13.0;;;6.6;;
59653;SDS011;66556;52.008;5.432;2023-02-28T01:48:38;12.6;;;5.6;;
59653;SDS011;66556;52.008;5.432;2023-02-28T01:50:19;12.9;;;6.0;;
59653;SDS011;66556;52.008;5.432;2023-02-28T01:51:58;12.2;;;5.8;;
59653;SDS011;66556;52.008;5.432;2023-02-28T01:55:18;11.6;;;5.9;;
59653;SDS011;66556;52.008;5.432;2023-02-28T01:56:58;11.6;;;5.9;;
59653;SDS011;66556;52.008;5.432;2023-02-28T01:58:40;12.2;;;5.7;;
59653;SDS011;66556;52.008;5.432;2023-02-28T02:00:18;10.6;;;5.9;;
59653;SDS011;66556;52.008;5.432;2023-02-28T02:03:36;10.0;;;5.4;;
59653;SDS011;66556;52.008;5.432;2023-02-28T02:05:14;10.1;;;5.2;;
59653;SDS011;66556;52.008;5.432;2023-02-28T02:06:53;9.0;;;4.7;;
59653;SDS011;66556;52.008;5.432;2023-02-28T02:08:30;9.4;;;4.8;;
59653;SDS011;66556;52.008;5.432;2023-02-28T02:11:51;10.8;;;5.2;;
59653;SDS011;66556;52.008;5.432;2023-02-28T02:13:30;11.5;;;4.8;;
59653;SDS011;66556;52.008;5.432;2023-02-28T02:15:29;10.9;;;5.11;;
59653;SDS011;66556;52.008;5.432;2023-02-28T02:17:14;11.2;;;5.5;;
59653;SDS011;66556;52.008;5.432;2023-02-28T02:19:02;11.9;;;5.11;;
59653;SDS011;66556;52.008;5.432;2023-02-28T02:22:37;9.71;;;5.11;;
59653;SDS011;66556;52.008;5.432;2023-02-28T02:25:10;9.9;;;5.11;;
59653;SDS011;66556;52.008;5.432;2023-02-28T02:26:58;9.5;;;4.91;;
59653;SDS011;66556;52.008;5.432;2023-02-28T02:29:51;7.8;;;4.41;;
59653;SDS011;66556;52.008;5.432;2023-02-28T02:32:12;8.9;;;4.5;;
59653;SDS011;66556;52.008;5.432;2023-02-28T02:35:27;8.81;;;4.2;;
59653;SDS011;66556;52.008;5.432;2023-02-28T02:37:12;11.2;;;4.3;;
59653;SDS011;66556;52.008;5.432;2023-02-28T02:38:56;9.0;;;4.5;;
59653;SDS011;66556;52.008;5.432;2023-02-28T02:40:43;8.1;;;4.3;;
59653;SDS011;66556;52.008;5.432;2023-02-28T02:42:31;8.6;;;4.3;;
59653;SDS011;66556;52.008;5.432;2023-02-28T02:44:17;7.1;;;4.1;;
59653;SDS011;66556;52.008;5.432;2023-02-28T02:47:40;7.1;;;3.8;;
59653;SDS011;66556;52.008;5.432;2023-02-28T02:49:20;9.71;;;4.1;;
59653;SDS011;66556;52.008;5.432;2023-02-28T02:51:00;7.4;;;4.1;;
59653;SDS011;66556;52.008;5.432;2023-02-28T02:52:42;8.0;;;4.0;;
59653;SDS011;66556;52.008;5.432;2023-02-28T02:54:33;8.5;;;4.3;;
59653;SDS011;66556;52.008;5.432;2023-02-28T02:57:52;9.1;;;4.3;;
59653;SDS011;66556;52.008;5.432;2023-02-28T02:59:33;9.4;;;4.41;;
59653;SDS011;66556;52.008;5.432;2023-02-28T03:01:14;9.1;;;4.5;;
59653;SDS011;66556;52.008;5.432;2023-02-28T03:02:54;6.6;;;4.1;;
59653;SDS011;66556;52.008;5.432;2023-02-28T03:06:17;9.1;;;4.41;;
59653;SDS011;66556;52.008;5.432;2023-02-28T03:07:54;8.31;;;4.3;;
59653;SDS011;66556;52.008;5.432;2023-02-28T03:09:32;9.5;;;4.41;;
59653;SDS011;66556;52.008;5.432;2023-02-28T03:12:52;11.8;;;4.5;;
59653;SDS011;66556;52.008;5.432;2023-02-28T03:14:42;10.0;;;4.8;;
59653;SDS011;66556;52.008;5.432;2023-02-28T03:16:33;9.81;;;4.2;;
59653;SDS011;66556;52.008;5.432;2023-02-28T03:18:18;8.2;;;4.41;;
59653;SDS011;66556;52.008;5.432;2023-02-28T03:20:04;7.5;;;4.2;;
59653;SDS011;66556;52.008;5.432;2023-02-28T03:21:53;7.3;;;4.2;;
59653;SDS011;66556;52.008;5.432;2023-02-28T03:25:27;7.1;;;4.41;;
59653;SDS011;66556;52.008;5.432;2023-02-28T03:27:12;9.9;;;4.3;;
59653;SDS011;66556;52.008;5.432;2023-02-28T03:28:59;9.5;;;4.7;;
59653;SDS011;66556;52.008;5.432;2023-02-28T03:30:42;7.2;;;4.1;;
59653;SDS011;66556;52.008;5.432;2023-02-28T03:32:26;10.6;;;4.61;;
59653;SDS011;66556;52.008;5.432;2023-02-28T03:35:54;9.9;;;4.41;;
59653;SDS011;66556;52.008;5.432;2023-02-28T03:37:36;7.1;;;4.3;;
59653;SDS011;66556;52.008;5.432;2023-02-28T03:39:17;9.9;;;4.8;;
59653;SDS011;66556;52.008;5.432;2023-02-28T03:40:59;9.5;;;4.41;;
59653;SDS011;66556;52.008;5.432;2023-02-28T03:42:41;9.4;;;4.61;;
59653;SDS011;66556;52.008;5.432;2023-02-28T03:46:06;9.5;;;4.3;;
59653;SDS011;66556;52.008;5.432;2023-02-28T03:47:46;9.0;;;4.5;;
59653;SDS011;66556;52.008;5.432;2023-02-28T03:49:30;9.5;;;4.5;;
59653;SDS011;66556;52.008;5.432;2023-02-28T03:51:11;8.81;;;4.61;;
59653;SDS011;66556;52.008;5.432;2023-02-28T03:54:38;7.3;;;3.8;;
59653;SDS011;66556;52.008;5.432;2023-02-28T03:56:22;8.0;;;4.3;;
59653;SDS011;66556;52.008;5.432;2023-02-28T03:58:05;9.1;;;4.2;;
59653;SDS011;66556;52.008;5.432;2023-02-28T03:59:52;6.1;;;3.8;;
59653;SDS011;66556;52.008;5.432;2023-02-28T04:01:35;7.3;;;4.1;;
59653;SDS011;66556;52.008;5.432;2023-02-28T04:04:52;7.4;;;3.8;;
59653;SDS011;66556;52.008;5.432;2023-02-28T04:06:30;8.5;;;4.1;;
59653;SDS011;66556;52.008;5.432;2023-02-28T04:08:08;6.6;;;3.5;;
59653;SDS011;66556;52.008;5.432;2023-02-28T04:11:21;7.4;;;3.6;;
59653;SDS011;66556;52.008;5.432;2023-02-28T04:13:02;5.0;;;3.3;;
59653;SDS011;66556;52.008;5.432;2023-02-28T04:14:38;6.0;;;3.4;;
59653;SDS011;66556;52.008;5.432;2023-02-28T04:16:14;6.3;;;3.5;;
59653;SDS011;66556;52.008;5.432;2023-02-28T04:19:28;7.3;;;3.5;;
59653;SDS011;66556;52.008;5.432;2023-02-28T04:21:04;7.1;;;3.4;;
59653;SDS011;66556;52.008;5.432;2023-02-28T04:22:41;7.6;;;3.4;;
59653;SDS011;66556;52.008;5.432;2023-02-28T04:25:56;6.8;;;3.6;;
59653;SDS011;66556;52.008;5.432;2023-02-28T04:27:32;6.1;;;3.4;;
59653;SDS011;66556;52.008;5.432;2023-02-28T04:29:10;5.3;;;3.1;;
59653;SDS011;66556;52.008;5.432;2023-02-28T04:30:53;5.8;;;3.8;;
59653;SDS011;66556;52.008;5.432;2023-02-28T04:34:07;5.4;;;3.5;;
59653;SDS011;66556;52.008;5.432;2023-02-28T04:35:43;5.2;;;3.3;;
59653;SDS011;66556;52.008;5.432;2023-02-28T04:37:19;5.4;;;3.2;;
59653;SDS011;66556;52.008;5.432;2023-02-28T04:40:32;4.5;;;2.9;;
59653;SDS011;66556;52.008;5.432;2023-02-28T04:42:09;5.6;;;3.3;;
59653;SDS011;66556;52.008;5.432;2023-02-28T04:43:46;6.2;;;3.0;;
59653;SDS011;66556;52.008;5.432;2023-02-28T04:45:22;5.11;;;3.8;;
59653;SDS011;66556;52.008;5.432;2023-02-28T04:48:35;6.7;;;3.4;;
59653;SDS011;66556;52.008;5.432;2023-02-28T04:50:14;6.3;;;4.3;;
59653;SDS011;66556;52.008;5.432;2023-02-28T04:51:50;5.8;;;3.1;;
59653;SDS011;66556;52.008;5.432;2023-02-28T04:55:04;5.3;;;3.5;;
59653;SDS011;66556;52.008;5.432;2023-02-28T04:56:42;6.0;;;3.1;;
59653;SDS011;66556;52.008;5.432;2023-02-28T04:58:18;6.9;;;3.9;;
59653;SDS011;66556;52.008;5.432;2023-02-28T05:01:31;6.6;;;3.8;;
59653;SDS011;66556;52.008;5.432;2023-02-28T05:03:08;4.91;;;3.2;;
59653;SDS011;66556;52.008;5.432;2023-02-28T05:04:45;3.9;;;2.8;;
59653;SDS011;66556;52.008;5.432;2023-02-28T05:06:21;6.6;;;3.7;;
59653;SDS011;66556;52.008;5.432;2023-02-28T05:09:35;8.2;;;4.8;;
59653;SDS011;66556;52.008;5.432;2023-02-28T05:11:14;7.6;;;4.91;;
59653;SDS011;66556;52.008;5.432;2023-02-28T05:12:52;6.9;;;3.9;;
59653;SDS011;66556;52.008;5.432;2023-02-28T05:16:05;6.5;;;3.3;;
59653;SDS011;66556;52.008;5.432;2023-02-28T05:17:42;6.7;;;3.2;;
59653;SDS011;66556;52.008;5.432;2023-02-28T05:19:19;8.0;;;3.4;;
59653;SDS011;66556;52.008;5.432;2023-02-28T05:20:55;10.4;;;4.0;;
59653;SDS011;66556;52.008;5.432;2023-02-28T05:24:09;5.8;;;3.4;;
59653;SDS011;66556;52.008;5.432;2023-02-28T05:25:47;6.5;;;3.5;;
59653;SDS011;66556;52.008;5.432;2023-02-28T05:27:23;5.5;;;2.9;;
59653;SDS011;66556;52.008;5.432;2023-02-28T05:30:36;6.1;;;3.4;;
59653;SDS011;66556;52.008;5.432;2023-02-28T05:32:12;5.2;;;3.3;;
59653;SDS011;66556;52.008;5.432;2023-02-28T05:33:49;5.5;;;3.1;;
59653;SDS011;66556;52.008;5.432;2023-02-28T05:37:02;7.0;;;3.6;;
59653;SDS011;66556;52.008;5.432;2023-02-28T05:38:38;6.5;;;3.6;;
59653;SDS011;66556;52.008;5.432;2023-02-28T05:40:15;6.3;;;3.7;;
59653;SDS011;66556;52.008;5.432;2023-02-28T05:41:52;6.3;;;3.7;;
59653;SDS011;66556;52.008;5.432;2023-02-28T05:45:04;8.1;;;4.0;;
59653;SDS011;66556;52.008;5.432;2023-02-28T05:46:41;8.0;;;4.2;;
59653;SDS011;66556;52.008;5.432;2023-02-28T05:48:17;5.7;;;3.9;;
59653;SDS011;66556;52.008;5.432;2023-02-28T05:51:30;8.2;;;4.3;;
59653;SDS011;66556;52.008;5.432;2023-02-28T05:53:06;6.6;;;4.3;;
59653;SDS011;66556;52.008;5.432;2023-02-28T05:54:42;8.31;;;4.1;;
59653;SDS011;66556;52.008;5.432;2023-02-28T05:57:54;7.3;;;4.3;;
59653;SDS011;66556;52.008;5.432;2023-02-28T05:59:30;7.3;;;4.3;;
59653;SDS011;66556;52.008;5.432;2023-02-28T06:01:30;7.5;;;4.61;;
59653;SDS011;66556;52.008;5.432;2023-02-28T06:03:09;7.5;;;4.7;;
59653;SDS011;66556;52.008;5.432;2023-02-28T06:06:22;8.31;;;4.5;;
59653;SDS011;66556;52.008;5.432;2023-02-28T06:07:58;9.31;;;4.61;;
59653;SDS011;66556;52.008;5.432;2023-02-28T06:09:34;8.81;;;4.5;;
59653;SDS011;66556;52.008;5.432;2023-02-28T06:11:11;7.8;;;4.3;;
59653;SDS011;66556;52.008;5.432;2023-02-28T06:14:25;4.8;;;3.8;;
59653;SDS011;66556;52.008;5.432;2023-02-28T06:16:01;5.8;;;4.1;;
59653;SDS011;66556;52.008;5.432;2023-02-28T06:17:37;6.1;;;3.6;;
59653;SDS011;66556;52.008;5.432;2023-02-28T06:20:52;7.8;;;3.9;;
59653;SDS011;66556;52.008;5.432;2023-02-28T06:22:28;8.31;;;4.1;;
59653;SDS011;66556;52.008;5.432;2023-02-28T06:24:05;6.4;;;3.6;;
59653;SDS011;66556;52.008;5.432;2023-02-28T06:27:20;7.0;;;3.9;;
59653;SDS011;66556;52.008;5.432;2023-02-28T06:28:57;7.0;;;4.8;;
59653;SDS011;66556;52.008;5.432;2023-02-28T06:30:33;9.21;;;4.3;;
59653;SDS011;66556;52.008;5.432;2023-02-28T06:32:09;6.2;;;3.9;;
59653;SDS011;66556;52.008;5.432;2023-02-28T06:35:22;7.3;;;4.5;;
59653;SDS011;66556;52.008;5.432;2023-02-28T06:36:58;6.5;;;4.5;;
59653;SDS011;66556;52.008;5.432;2023-02-28T06:38:37;8.5;;;4.8;;
59653;SDS011;66556;52.008;5.432;2023-02-28T06:41:51;10.7;;;5.6;;
59653;SDS011;66556;52.008;5.432;2023-02-28T06:43:27;7.7;;;3.7;;
59653;SDS011;66556;52.008;5.432;2023-02-28T06:45:06;9.1;;;4.3;;
59653;SDS011;66556;52.008;5.432;2023-02-28T06:46:43;6.1;;;3.8;;
59653;SDS011;66556;52.008;5.432;2023-02-28T06:49:56;7.5;;;4.2;;
59653;SDS011;66556;52.008;5.432;2023-02-28T06:51:33;6.1;;;4.0;;
59653;SDS011;66556;52.008;5.432;2023-02-28T06:53:09;5.8;;;3.6;;
59653;SDS011;66556;52.008;5.432;2023-02-28T06:56:21;7.2;;;3.9;;
59653;SDS011;66556;52.008;5.432;2023-02-28T06:57:57;8.0;;;3.8;;
59653;SDS011;66556;52.008;5.432;2023-02-28T06:59:34;7.3;;;4.0;;
59653;SDS011;66556;52.008;5.432;2023-02-28T07:02:49;7.9;;;3.7;;
59653;SDS011;66556;52.008;5.432;2023-02-28T07:04:25;8.1;;;4.1;;
59653;SDS011;66556;52.008;5.432;2023-02-28T07:06:01;5.3;;;3.9;;
59653;SDS011;66556;52.008;5.432;2023-02-28T07:07:38;8.81;;;4.1;;
59653;SDS011;66556;52.008;5.432;2023-02-28T07:10:52;8.71;;;5.0;;
59653;SDS011;66556;52.008;5.432;2023-02-28T07:12:28;6.5;;;4.0;;
59653;SDS011;66556;52.008;5.432;2023-02-28T07:14:05;8.4;;;4.2;;
59653;SDS011;66556;52.008;5.432;2023-02-28T07:17:17;7.3;;;4.1;;
59653;SDS011;66556;52.008;5.432;2023-02-28T07:18:53;7.0;;;4.0;;
59653;SDS011;66556;52.008;5.432;2023-02-28T07:20:29;8.81;;;4.3;;
59653;SDS011;66556;52.008;5.432;2023-02-28T07:23:43;10.9;;;4.61;;
59653;SDS011;66556;52.008;5.432;2023-02-28T07:25:20;8.1;;;4.2;;
59653;SDS011;66556;52.008;5.432;2023-02-28T07:26:56;8.0;;;3.9;;
59653;SDS011;66556;52.008;5.432;2023-02-28T07:28:33;12.4;;;4.61;;
59653;SDS011;66556;52.008;5.432;2023-02-28T07:31:46;11.3;;;4.61;;
59653;SDS011;66556;52.008;5.432;2023-02-28T07:33:22;8.5;;;4.7;;
59653;SDS011;66556;52.008;5.432;2023-02-28T07:34:58;8.4;;;4.41;;
59653;SDS011;66556;52.008;5.432;2023-02-28T07:38:11;7.1;;;3.7;;
59653;SDS011;66556;52.008;5.432;2023-02-28T07:39:47;5.9;;;3.8;;
59653;SDS011;66556;52.008;5.432;2023-02-28T07:41:23;7.2;;;4.2;;
59653;SDS011;66556;52.008;5.432;2023-02-28T07:46:14;8.4;;;4.3;;
59653;SDS011;66556;52.008;5.432;2023-02-28T07:47:51;7.5;;;4.0;;
59653;SDS011;66556;52.008;5.432;2023-02-28T07:49:29;8.0;;;4.7;;
59653;SDS011;66556;52.008;5.432;2023-02-28T07:52:41;6.0;;;4.1;;
59653;SDS011;66556;52.008;5.432;2023-02-28T07:54:18;9.31;;;4.41;;
59653;SDS011;66556;52.008;5.432;2023-02-28T07:55:55;8.81;;;4.3;;
59653;SDS011;66556;52.008;5.432;2023-02-28T07:59:07;5.8;;;3.2;;
59653;SDS011;66556;52.008;5.432;2023-02-28T08:00:44;6.2;;;3.9;;
59653;SDS011;66556;52.008;5.432;2023-02-28T08:02:20;8.2;;;4.41;;
59653;SDS011;66556;52.008;5.432;2023-02-28T08:05:32;5.9;;;4.0;;
59653;SDS011;66556;52.008;5.432;2023-02-28T08:07:08;6.0;;;3.4;;
59653;SDS011;66556;52.008;5.432;2023-02-28T08:08:44;6.1;;;2.7;;
59653;SDS011;66556;52.008;5.432;2023-02-28T08:11:57;4.91;;;2.9;;
59653;SDS011;66556;52.008;5.432;2023-02-28T08:13:33;4.61;;;2.7;;
59653;SDS011;66556;52.008;5.432;2023-02-28T08:15:09;7.8;;;3.1;;
59653;SDS011;66556;52.008;5.432;2023-02-28T08:16:46;6.7;;;3.2;;
59653;SDS011;66556;52.008;5.432;2023-02-28T08:19:59;3.9;;;2.7;;
59653;SDS011;66556;52.008;5.432;2023-02-28T08:21:36;6.2;;;2.8;;
59653;SDS011;66556;52.008;5.432;2023-02-28T08:23:12;7.3;;;2.6;;
59653;SDS011;66556;52.008;5.432;2023-02-28T08:26:25;5.8;;;3.0;;
59653;SDS011;66556;52.008;5.432;2023-02-28T08:28:01;4.8;;;2.5;;
59653;SDS011;66556;52.008;5.432;2023-02-28T08:29:37;7.8;;;2.9;;
59653;SDS011;66556;52.008;5.432;2023-02-28T08:32:53;5.6;;;2.9;;
59653;SDS011;66556;52.008;5.432;2023-02-28T08:34:29;5.6;;;2.9;;
59653;SDS011;66556;52.008;5.432;2023-02-28T08:36:05;6.9;;;3.0;;
59653;SDS011;66556;52.008;5.432;2023-02-28T08:37:43;6.7;;;3.1;;
59653;SDS011;66556;52.008;5.432;2023-02-28T08:40:57;4.2;;;2.5;;
59653;SDS011;66556;52.008;5.432;2023-02-28T08:42:35;4.41;;;2.31;;
59653;SDS011;66556;52.008;5.432;2023-02-28T08:44:12;7.4;;;2.6;;
59653;SDS011;66556;52.008;5.432;2023-02-28T08:47:27;4.2;;;2.5;;
59653;SDS011;66556;52.008;5.432;2023-02-28T08:49:03;5.0;;;2.31;;
59653;SDS011;66556;52.008;5.432;2023-02-28T08:50:39;6.8;;;2.5;;
59653;SDS011;66556;52.008;5.432;2023-02-28T08:52:15;2.7;;;2.0;;
59653;SDS011;66556;52.008;5.432;2023-02-28T08:55:30;4.7;;;2.0;;
59653;SDS011;66556;52.008;5.432;2023-02-28T08:57:06;4.5;;;2.0;;
59653;SDS011;66556;52.008;5.432;2023-02-28T08:58:42;4.0;;;2.31;;
59653;SDS011;66556;52.008;5.432;2023-02-28T09:01:57;3.2;;;2.0;;
59653;SDS011;66556;52.008;5.432;2023-02-28T09:03:34;6.3;;;3.0;;
59653;SDS011;66556;52.008;5.432;2023-02-28T09:05:10;3.2;;;1.4;;
59653;SDS011;66556;52.008;5.432;2023-02-28T09:08:22;2.9;;;1.4;;
59653;SDS011;66556;52.008;5.432;2023-02-28T09:09:59;2.31;;;1.3;;
59653;SDS011;66556;52.008;5.432;2023-02-28T09:11:35;2.1;;;1.2;;
59653;SDS011;66556;52.008;5.432;2023-02-28T09:13:12;3.6;;;1.9;;
59653;SDS011;66556;52.008;5.432;2023-02-28T09:16:25;4.3;;;1.8;;
59653;SDS011;66556;52.008;5.432;2023-02-28T09:18:01;3.2;;;1.8;;
59653;SDS011;66556;52.008;5.432;2023-02-28T09:19:37;3.6;;;1.8;;
59653;SDS011;66556;52.008;5.432;2023-02-28T09:22:52;4.2;;;2.0;;
59653;SDS011;66556;52.008;5.432;2023-02-28T09:24:28;3.5;;;1.6;;
59653;SDS011;66556;52.008;5.432;2023-02-28T09:26:05;2.8;;;1.6;;
59653;SDS011;66556;52.008;5.432;2023-02-28T09:29:18;3.2;;;1.7;;
59653;SDS011;66556;52.008;5.432;2023-02-28T09:30:54;1.8;;;1.4;;
59653;SDS011;66556;52.008;5.432;2023-02-28T09:32:31;2.21;;;1.5;;
59653;SDS011;66556;52.008;5.432;2023-02-28T09:34:07;4.0;;;1.7;;
59653;SDS011;66556;52.008;5.432;2023-02-28T09:37:19;2.21;;;1.5;;
59653;SDS011;66556;52.008;5.432;2023-02-28T09:38:56;2.9;;;1.5;;
59653;SDS011;66556;52.008;5.432;2023-02-28T09:40:32;2.31;;;1.5;;
59653;SDS011;66556;52.008;5.432;2023-02-28T09:44:05;3.0;;;1.8;;
59653;SDS011;66556;52.008;5.432;2023-02-28T09:45:50;2.4;;;1.5;;
59653;SDS011;66556;52.008;5.432;2023-02-28T09:47:31;2.21;;;1.3;;
59653;SDS011;66556;52.008;5.432;2023-02-28T09:49:12;3.4;;;1.7;;
59653;SDS011;66556;52.008;5.432;2023-02-28T09:50:52;1.8;;;1.3;;
59653;SDS011;66556;52.008;5.432;2023-02-28T09:54:14;2.31;;;1.4;;
59653;SDS011;66556;52.008;5.432;2023-02-28T09:55:53;3.2;;;1.5;;
59653;SDS011;66556;52.008;5.432;2023-02-28T09:57:35;1.9;;;1.3;;
59653;SDS011;66556;52.008;5.432;2023-02-28T09:59:18;2.7;;;1.6;;
59653;SDS011;66556;52.008;5.432;2023-02-28T10:01:19;1.9;;;0.9;;
59653;SDS011;66556;52.008;5.432;2023-02-28T10:05:02;2.1;;;1.4;;
59653;SDS011;66556;52.008;5.432;2023-02-28T10:06:44;2.8;;;1.2;;
59653;SDS011;66556;52.008;5.432;2023-02-28T10:08:25;1.7;;;1.3;;
59653;SDS011;66556;52.008;5.432;2023-02-28T10:10:13;2.21;;;1.4;;
59653;SDS011;66556;52.008;5.432;2023-02-28T10:11:57;1.8;;;1.2;;
59653;SDS011;66556;52.008;5.432;2023-02-28T10:15:27;1.7;;;1.11;;
59653;SDS011;66556;52.008;5.432;2023-02-28T10:17:08;2.1;;;1.2;;
59653;SDS011;66556;52.008;5.432;2023-02-28T10:18:51;1.7;;;1.3;;
59653;SDS011;66556;52.008;5.432;2023-02-28T10:20:36;2.31;;;1.2;;
59653;SDS011;66556;52.008;5.432;2023-02-28T10:22:14;1.4;;;1.3;;
59653;SDS011;66556;52.008;5.432;2023-02-28T10:25:54;1.9;;;1.2;;
59653;SDS011;66556;52.008;5.432;2023-02-28T10:27:34;3.3;;;1.4;;
59653;SDS011;66556;52.008;5.432;2023-02-28T10:29:10;3.1;;;1.4;;
59653;SDS011;66556;52.008;5.432;2023-02-28T10:30:48;2.5;;;1.6;;
59653;SDS011;66556;52.008;5.432;2023-02-28T10:34:07;4.0;;;2.6;;
59653;SDS011;66556;52.008;5.432;2023-02-28T10:35:47;2.31;;;1.4;;
59653;SDS011;66556;52.008;5.432;2023-02-28T10:37:24;3.3;;;1.8;;
59653;SDS011;66556;52.008;5.432;2023-02-28T10:39:01;2.31;;;1.3;;
59653;SDS011;66556;52.008;5.432;2023-02-28T10:41:11;1.7;;;1.3;;
59653;SDS011;66556;52.008;5.432;2023-02-28T10:44:34;2.0;;;1.4;;
59653;SDS011;66556;52.008;5.432;2023-02-28T10:46:12;3.5;;;2.1;;
59653;SDS011;66556;52.008;5.432;2023-02-28T10:47:52;2.8;;;1.3;;
59653;SDS011;66556;52.008;5.432;2023-02-28T10:49:30;2.4;;;1.4;;
59653;SDS011;66556;52.008;5.432;2023-02-28T10:52:46;2.5;;;1.4;;
59653;SDS011;66556;52.008;5.432;2023-02-28T10:54:23;2.5;;;1.3;;
59653;SDS011;66556;52.008;5.432;2023-02-28T10:56:04;2.0;;;1.4;;
59653;SDS011;66556;52.008;5.432;2023-02-28T10:57:49;2.7;;;1.3;;
59653;SDS011;66556;52.008;5.432;2023-02-28T11:01:10;1.8;;;1.2;;
59653;SDS011;66556;52.008;5.432;2023-02-28T11:02:49;4.2;;;1.7;;
59653;SDS011;66556;52.008;5.432;2023-02-28T11:04:34;3.6;;;2.1;;
59653;SDS011;66556;52.008;5.432;2023-02-28T11:06:15;2.7;;;1.4;;
59653;SDS011;66556;52.008;5.432;2023-02-28T11:09:34;1.9;;;1.2;;
59653;SDS011;66556;52.008;5.432;2023-02-28T11:11:14;1.8;;;1.2;;
59653;SDS011;66556;52.008;5.432;2023-02-28T11:12:53;2.5;;;1.5;;
59653;SDS011;66556;52.008;5.432;2023-02-28T11:14:32;2.5;;;1.5;;
59653;SDS011;66556;52.008;5.432;2023-02-28T11:18:18;2.21;;;1.4;;
59653;SDS011;66556;52.008;5.432;2023-02-28T11:19:59;2.1;;;1.4;;
59653;SDS011;66556;52.008;5.432;2023-02-28T11:21:39;2.6;;;1.4;;
59653;SDS011;66556;52.008;5.432;2023-02-28T11:23:24;3.2;;;1.4;;
59653;SDS011;66556;52.008;5.432;2023-02-28T11:25:06;2.21;;;1.3;;
59653;SDS011;66556;52.008;5.432;2023-02-28T11:28:26;3.3;;;1.4;;
59653;SDS011;66556;52.008;5.432;2023-02-28T11:30:12;2.7;;;1.4;;
59653;SDS011;66556;52.008;5.432;2023-02-28T11:32:04;2.7;;;1.5;;
59653;SDS011;66556;52.008;5.432;2023-02-28T11:33:48;2.7;;;1.5;;
59653;SDS011;66556;52.008;5.432;2023-02-28T11:35:28;3.0;;;1.2;;
59653;SDS011;66556;52.008;5.432;2023-02-28T11:38:51;2.0;;;1.4;;
59653;SDS011;66556;52.008;5.432;2023-02-28T11:40:31;1.9;;;1.3;;
59653;SDS011;66556;52.008;5.432;2023-02-28T11:42:23;3.2;;;1.7;;
59653;SDS011;66556;52.008;5.432;2023-02-28T11:45:22;2.7;;;1.6;;
59653;SDS011;66556;52.008;5.432;2023-02-28T11:47:15;3.3;;;1.7;;
59653;SDS011;66556;52.008;5.432;2023-02-28T11:49:02;3.1;;;1.3;;
59653;SDS011;66556;52.008;5.432;2023-02-28T11:50:57;1.8;;;1.2;;
59653;SDS011;66556;52.008;5.432;2023-02-28T11:52:43;2.0;;;1.4;;
59653;SDS011;66556;52.008;5.432;2023-02-28T11:54:27;3.0;;;1.4;;
59653;SDS011;66556;52.008;5.432;2023-02-28T11:56:29;2.9;;;1.4;;
59653;SDS011;66556;52.008;5.432;2023-02-28T12:00:29;3.3;;;1.5;;
59653;SDS011;66556;52.008;5.432;2023-02-28T12:02:22;3.3;;;1.2;;
59653;SDS011;66556;52.008;5.432;2023-02-28T12:04:10;3.1;;;1.4;;
59653;SDS011;66556;52.008;5.432;2023-02-28T12:05:58;2.0;;;1.2;;
59653;SDS011;66556;52.008;5.432;2023-02-28T12:07:56;2.0;;;1.2;;
59653;SDS011;66556;52.008;5.432;2023-02-28T12:09:46;1.5;;;1.2;;
59653;SDS011;66556;52.008;5.432;2023-02-28T12:11:40;2.7;;;1.4;;
59653;SDS011;66556;52.008;5.432;2023-02-28T12:13:28;1.8;;;1.3;;
59653;SDS011;66556;52.008;5.432;2023-02-28T12:15:17;2.4;;;1.4;;
59653;SDS011;66556;52.008;5.432;2023-02-28T12:18:26;2.21;;;1.2;;
59653;SDS011;66556;52.008;5.432;2023-02-28T12:20:29;2.5;;;1.3;;
59653;SDS011;66556;52.008;5.432;2023-02-28T12:22:16;1.8;;;1.3;;
59653;SDS011;66556;52.008;5.432;2023-02-28T12:24:08;3.4;;;1.4;;
59653;SDS011;66556;52.008;5.432;2023-02-28T12:26:28;1.5;;;1.3;;
59653;SDS011;66556;52.008;5.432;2023-02-28T12:28:13;2.1;;;1.3;;
59653;SDS011;66556;52.008;5.432;2023-02-28T12:29:54;2.9;;;1.5;;
59653;SDS011;66556;52.008;5.432;2023-02-28T12:33:16;1.7;;;1.2;;
59653;SDS011;66556;52.008;5.432;2023-02-28T12:34:57;2.8;;;1.2;;
59653;SDS011;66556;52.008;5.432;2023-02-28T12:36:40;5.8;;;1.7;;
59653;SDS011;66556;52.008;5.432;2023-02-28T12:38:19;2.6;;;1.6;;
59653;SDS011;66556;52.008;5.432;2023-02-28T12:41:41;3.4;;;1.2;;
59653;SDS011;66556;52.008;5.432;2023-02-28T12:43:22;3.0;;;1.4;;
59653;SDS011;66556;52.008;5.432;2023-02-28T12:45:09;3.1;;;1.2;;
59653;SDS011;66556;52.008;5.432;2023-02-28T12:46:51;3.1;;;1.5;;
59653;SDS011;66556;52.008;5.432;2023-02-28T12:50:18;2.4;;;1.6;;
59653;SDS011;66556;52.008;5.432;2023-02-28T12:51:56;4.41;;;1.7;;
59653;SDS011;66556;52.008;5.432;2023-02-28T12:53:36;2.6;;;1.4;;
59653;SDS011;66556;52.008;5.432;2023-02-28T12:55:27;2.1;;;1.4;;
59653;SDS011;66556;52.008;5.432;2023-02-28T12:57:15;2.4;;;1.5;;
59653;SDS011;66556;52.008;5.432;2023-02-28T13:00:49;2.0;;;1.4;;